Time;durP1;ratioP1;P1;durP2;ratioP2;P2;SDS_P1;SDS_P2;PMS_P1;PMS_P2;Temp;Humidity;BMP_temperature;BMP_pressure;BME280_temperature;BME280_humidity;BME280_pressure;Samples;Min_cycle;Max_cycle;Signal;HPM_P1;HPM_P2
2023/07/06 00:01:10;;;;;;;;;;;;;;;16.58;61.65;100582.63;4857276;29;7188;-74
2023/07/06 00:03:37;;;;;;;;;;;;;;;16.61;61.74;100590.47;4841345;29;6884;-74
2023/07/06 00:06:08;;;;;;;;;;;;;;;16.61;61.50;100583.59;4849095;29;7139;-74
2023/07/06 00:08:34;;;;;;;;;;;;;;;16.63;61.22;100591.41;4853010;29;6953;-74
2023/07/06 00:11:00;;;;;;;;;;;;;;;16.62;61.64;100587.94;4858538;29;6781;-73
2023/07/06 00:13:26;;;;;;;;;;;;;;;16.63;61.74;100594.84;4842607;29;6852;-74
2023/07/06 00:15:52;;;;;;;;;;;;;;;16.64;61.40;100594.03;4853929;29;6941;-74
2023/07/06 00:18:22;;;;;;;;;;;;;;;16.64;61.33;100588.84;4845276;29;6945;-74
2023/07/06 00:20:49;;;;;;;;;;;;;;;16.64;61.29;100582.81;4821249;29;7006;-73
2023/07/06 00:23:16;;;;;;;;;;;;;;;16.63;61.40;100587.09;4838632;29;6904;-74
2023/07/06 00:25:42;;;;;;;;;;;;;;;16.63;61.40;100588.81;4853776;29;6873;-73
2023/07/06 00:28:10;;;;;;;;;;;;;;;16.63;61.35;100591.41;4841161;29;6860;-74
2023/07/06 00:33:19;;;;;;;;;;;;;;;16.61;60.92;100591.38;4844467;29;7695;-73
2023/07/06 00:35:46;;;;;;;;;;;;;;;16.59;60.80;100594.75;4856137;29;6953;-73
2023/07/06 00:38:19;;;;;;;;;;;;;;;16.57;60.93;100586.06;4843607;29;6904;-73
2023/07/06 00:40:49;;;;;;;;;;;;;;;16.56;60.99;100594.66;4849863;29;6949;-73
2023/07/06 00:43:20;;;;;;;;;;;;;;;16.53;61.42;100590.28;4845924;29;6809;-73
2023/07/06 00:45:52;;;;;;;;;;;;;;;16.51;61.17;100587.66;4847337;29;6936;-73
2023/07/06 00:48:32;;;;;;;;;;;;;;;16.48;60.98;100584.97;4836219;29;7247;-73
2023/07/06 00:51:07;;;;;;;;;;;;;;;16.47;61.02;100584.97;4864757;29;6997;-73
2023/07/06 00:53:38;;;;;;;;;;;;;;;16.45;61.07;100591.78;4860008;29;6812;-73
2023/07/06 00:56:11;;;;;;;;;;;;;;;16.42;61.25;100586.53;4828656;29;6989;-73
2023/07/06 00:58:44;;;;;;;;;;;;;;;16.40;60.92;100586.47;4844755;29;7187;-73
2023/07/06 01:01:16;;;;;;;;;;;;;;;16.38;61.29;100583.88;4862457;29;6973;-73
2023/07/06 01:03:49;;;;;;;;;;;;;;;16.37;60.78;100587.31;4845588;29;6813;-73
2023/07/06 01:06:27;;;;;;;;;;;;;;;16.34;60.58;100578.56;4840606;29;6801;-74
2023/07/06 01:08:54;;;;;;;;;;;;;;;16.31;60.68;100583.66;4847825;29;7392;-73
2023/07/06 01:11:20;;;;;;;;;;;;;;;16.28;60.63;100583.56;4860421;29;6820;-73
2023/07/06 01:13:51;;;;;;;;;;;;;;;16.25;60.81;100586.94;4849583;29;7285;-73
2023/07/06 01:16:42;;;;;;;;;;;;;;;16.20;60.56;100591.13;4846484;29;6869;-73
2023/07/06 01:19:57;;;;;;;;;;;;;;;16.14;60.86;100584.06;4865340;29;6808;-73
2023/07/06 01:22:56;;;;;;;;;;;;;;;16.07;61.17;100590.75;4838371;29;7256;-73
2023/07/06 01:25:59;;;;;;;;;;;;;;;16.04;60.99;100595.00;4846864;29;7002;-73
2023/07/06 01:29:21;;;;;;;;;;;;;;;15.99;60.91;100586.22;4860793;29;7263;-73
2023/07/06 01:32:05;;;;;;;;;;;;;;;15.93;61.39;100592.97;4840211;29;9231;-73
2023/07/06 01:34:57;;;;;;;;;;;;;;;15.91;61.43;100594.63;4864288;29;7167;-73
2023/07/06 01:37:32;;;;;;;;;;;;;;;15.89;60.78;100595.41;4840592;29;6901;-73
2023/07/06 01:40:00;;;;;;;;;;;;;;;15.88;60.87;100594.50;4844563;29;6868;-73
2023/07/06 01:42:34;;;;;;;;;;;;;;;15.87;61.27;100599.63;4858759;29;7017;-73
2023/07/06 01:45:23;;;;;;;;;;;;;;;15.83;61.06;100596.94;4861788;29;7087;-73
2023/07/06 01:47:53;;;;;;;;;;;;;;;15.82;60.81;100604.66;4830033;29;7023;-73
2023/07/06 01:50:56;;;;;;;;;;;;;;;15.78;61.05;100598.50;4824420;29;7252;-73
2023/07/06 01:53:59;;;;;;;;;;;;;;;15.77;61.14;100601.06;4857128;29;8053;-73
2023/07/06 01:56:38;;;;;;;;;;;;;;;15.76;61.12;100601.91;4848705;29;7647;-73
2023/07/06 01:59:12;;;;;;;;;;;;;;;15.72;61.16;100603.50;4863812;29;6813;-73
2023/07/06 02:01:47;;;;;;;;;;;;;;;15.73;61.02;100606.97;4843432;29;7226;-73
2023/07/06 02:04:13;;;;;;;;;;;;;;;15.72;60.98;100600.94;4840236;29;6864;-73
2023/07/06 02:06:41;;;;;;;;;;;;;;;15.73;61.29;100601.78;4820842;29;7154;-73
2023/07/06 02:09:14;;;;;;;;;;;;;;;15.74;60.89;100600.94;4843477;29;6785;-73
2023/07/06 02:11:40;;;;;;;;;;;;;;;15.73;60.77;100605.25;4858910;29;7185;-73
2023/07/06 02:14:06;;;;;;;;;;;;;;;15.73;61.01;100605.25;4842280;29;7251;-73
2023/07/06 02:16:31;;;;;;;;;;;;;;;15.74;61.10;100606.13;4841305;29;6769;-73
2023/07/06 02:19:00;;;;;;;;;;;;;;;15.71;61.19;100601.75;4858085;29;6844;-73
2023/07/06 02:21:26;;;;;;;;;;;;;;;15.71;60.92;100606.03;4839578;29;6813;-73
2023/07/06 02:23:52;;;;;;;;;;;;;;;15.68;60.37;100601.66;4849807;29;6811;-73
2023/07/06 02:26:17;;;;;;;;;;;;;;;15.65;60.61;100594.72;4842548;29;6764;-73
2023/07/06 02:28:43;;;;;;;;;;;;;;;15.61;60.63;100590.25;4846129;29;6980;-73
2023/07/06 02:31:09;;;;;;;;;;;;;;;15.57;60.43;100590.13;4838981;29;6928;-73
2023/07/06 02:33:34;;;;;;;;;;;;;;;15.53;60.54;100596.91;4842660;29;6949;-73
2023/07/06 02:36:01;;;;;;;;;;;;;;;15.48;60.44;100591.59;4824604;29;6872;-73
2023/07/06 02:38:29;;;;;;;;;;;;;;;15.45;60.92;100594.09;4841427;29;6805;-73
2023/07/06 02:40:57;;;;;;;;;;;;;;;15.43;60.50;100597.44;4858083;29;6808;-73
2023/07/06 02:43:25;;;;;;;;;;;;;;;15.39;60.37;100602.53;4841768;29;6821;-73
2023/07/06 02:45:50;;;;;;;;;;;;;;;15.37;61.21;100598.13;4843103;29;7214;-73
2023/07/06 02:48:17;;;;;;;;;;;;;;;15.36;60.88;100598.97;4858645;29;6792;-73
2023/07/06 02:50:49;;;;;;;;;;;;;;;15.34;60.68;100604.06;4853911;29;8702;-72
2023/07/06 02:53:15;;;;;;;;;;;;;;;15.33;61.11;100599.72;4844415;29;6968;-71
2023/07/06 02:55:40;;;;;;;;;;;;;;;15.32;61.15;100605.72;4823333;29;6935;-72
2023/07/06 02:58:06;;;;;;;;;;;;;;;15.30;60.96;100606.50;4853594;29;6780;-72
2023/07/06 03:00:31;;;;;;;;;;;;;;;15.28;60.69;100596.16;4857158;29;7119;-70
2023/07/06 03:02:58;;;;;;;;;;;;;;;15.26;60.56;100602.97;4843245;29;7066;-71
2023/07/06 03:05:24;;;;;;;;;;;;;;;15.24;60.94;100599.44;4847790;29;6982;-71
2023/07/06 03:07:54;;;;;;;;;;;;;;;15.24;60.62;100609.75;4842961;29;6780;-71
2023/07/06 03:10:22;;;;;;;;;;;;;;;15.22;61.17;100601.09;4844666;29;6800;-72
2023/07/06 03:12:48;;;;;;;;;;;;;;;15.22;61.37;100616.59;4843547;29;7217;-71
2023/07/06 03:15:16;;;;;;;;;;;;;;;15.23;61.07;100618.34;4845064;29;7274;-71
2023/07/06 03:17:48;;;;;;;;;;;;;;;15.21;61.08;100620.00;4839572;29;7218;-71
2023/07/06 03:20:18;;;;;;;;;;;;;;;15.21;60.67;100609.69;4850406;29;8560;-71
2023/07/06 03:22:53;;;;;;;;;;;;;;;15.19;60.62;100616.50;4837477;29;7258;-73
2023/07/06 03:25:23;;;;;;;;;;;;;;;15.17;60.57;100616.44;4836401;29;6809;-73
2023/07/06 03:27:49;;;;;;;;;;;;;;;15.16;61.06;100616.38;4845102;29;7092;-74
2023/07/06 03:30:19;;;;;;;;;;;;;;;15.17;60.60;100618.16;4859959;29;6827;-73
2023/07/06 03:32:45;;;;;;;;;;;;;;;15.14;60.47;100624.09;4857879;29;6801;-73
2023/07/06 03:35:13;;;;;;;;;;;;;;;15.13;60.52;100620.63;4855820;29;7030;-73
2023/07/06 03:37:43;;;;;;;;;;;;;;;15.13;60.35;100622.34;4856936;29;7040;-73
2023/07/06 03:40:11;;;;;;;;;;;;;;;15.13;61.30;100623.19;4841861;29;7079;-73
2023/07/06 03:42:45;;;;;;;;;;;;;;;15.14;61.37;100624.94;4842817;29;6785;-74
2023/07/06 03:45:15;;;;;;;;;;;;;;;15.16;61.23;100627.59;4856180;29;7289;-73
2023/07/06 03:47:43;;;;;;;;;;;;;;;15.18;60.95;100630.25;4845915;29;6860;-73
2023/07/06 03:50:16;;;;;;;;;;;;;;;15.21;60.89;100625.16;4841944;29;6955;-74
2023/07/06 03:52:42;;;;;;;;;;;;;;;15.23;61.41;100629.56;4836982;29;7127;-73
2023/07/06 03:55:15;;;;;;;;;;;;;;;15.26;60.84;100629.66;4845917;29;7039;-73
2023/07/06 03:57:43;;;;;;;;;;;;;;;15.28;61.61;100633.16;4854704;29;6832;-73
2023/07/06 04:00:19;;;;;;;;;;;;;;;15.31;61.48;100632.38;4836249;29;6860;-72
2023/07/06 04:02:49;;;;;;;;;;;;;;;15.33;61.13;100641.03;4834534;29;11608;-73
2023/07/06 04:05:19;;;;;;;;;;;;;;;15.35;61.05;100641.97;4851551;29;6829;-73
2023/07/06 04:07:47;;;;;;;;;;;;;;;15.38;60.86;100641.19;4849656;29;6927;-73
2023/07/06 04:10:12;;;;;;;;;;;;;;;15.40;61.12;100643.00;4835914;29;6804;-73
2023/07/06 04:12:39;;;;;;;;;;;;;;;15.45;61.15;100644.84;4847343;29;6845;-74
2023/07/06 04:15:07;;;;;;;;;;;;;;;15.48;61.48;100644.97;4847773;29;7952;-73
2023/07/06 04:17:36;;;;;;;;;;;;;;;15.51;61.36;100642.47;4829383;29;6845;-73
2023/07/06 04:20:11;;;;;;;;;;;;;;;15.55;60.83;100641.75;4835210;29;7250;-74
2023/07/06 04:22:37;;;;;;;;;;;;;;;15.67;61.77;100644.72;4848982;29;7052;-72
2023/07/06 04:25:04;;;;;;;;;;;;;;;15.86;62.33;100646.97;4850321;29;6984;-73
2023/07/06 04:27:30;;;;;;;;;;;;;;;16.09;62.25;100651.16;4849146;29;6797;-73
2023/07/06 04:29:55;;;;;;;;;;;;;;;16.33;62.62;100650.09;4865962;29;6772;-73
2023/07/06 04:32:23;;;;;;;;;;;;;;;16.60;62.55;100654.31;4845320;29;6788;-73
2023/07/06 04:34:49;;;;;;;;;;;;;;;16.86;62.07;100655.84;4850397;29;6792;-73
2023/07/06 04:37:16;;;;;;;;;;;;;;;17.09;62.24;100653.88;4861624;29;6841;-73
2023/07/06 04:39:42;;;;;;;;;;;;;;;17.28;61.46;100647.41;4847964;29;6793;-73
2023/07/06 04:42:08;;;;;;;;;;;;;;;17.49;61.20;100646.22;4832408;29;7255;-73
2023/07/06 04:44:35;;;;;;;;;;;;;;;17.70;60.83;100647.53;4835017;29;7057;-74
2023/07/06 04:47:01;;;;;;;;;;;;;;;17.90;61.09;100655.75;4859638;29;6973;-75
2023/07/06 04:49:27;;;;;;;;;;;;;;;18.08;60.59;100654.41;4849324;29;7154;-74
2023/07/06 04:51:52;;;;;;;;;;;;;;;18.24;60.22;100650.44;4845552;29;7317;-74
2023/07/06 04:54:18;;;;;;;;;;;;;;;18.38;60.45;100646.41;4851383;29;6772;-73
2023/07/06 04:56:44;;;;;;;;;;;;;;;18.55;59.42;100645.88;4848641;29;6973;-74
2023/07/06 04:59:09;;;;;;;;;;;;;;;18.71;59.69;100644.44;4848164;29;6789;-73
2023/07/06 05:01:35;;;;;;;;;;;;;;;18.87;58.73;100650.75;4846833;29;6828;-74
2023/07/06 05:04:01;;;;;;;;;;;;;;;19.01;58.92;100648.44;4847714;29;6776;-74
2023/07/06 05:06:26;;;;;;;;;;;;;;;19.17;58.28;100651.28;4834341;29;7189;-73
2023/07/06 05:08:53;;;;;;;;;;;;;;;19.33;58.00;100661.09;4848534;29;6849;-74
2023/07/06 05:11:18;;;;;;;;;;;;;;;19.48;58.01;100655.25;4846945;29;6793;-73
2023/07/06 05:13:45;;;;;;;;;;;;;;;19.65;57.96;100659.84;4826854;29;6951;-75
2023/07/06 05:16:11;;;;;;;;;;;;;;;19.80;57.52;100654.88;4864668;29;6789;-73
2023/07/06 05:18:37;;;;;;;;;;;;;;;19.92;56.99;100655.88;4855891;29;6852;-73
2023/07/06 05:21:03;;;;;;;;;;;;;;;20.03;55.98;100656.03;4828731;29;7045;-74
2023/07/06 05:23:28;;;;;;;;;;;;;;;20.10;56.38;100663.97;4844974;29;6777;-74
2023/07/06 05:26:00;;;;;;;;;;;;;;;20.18;55.49;100656.25;4841599;29;6833;-75
2023/07/06 05:28:29;;;;;;;;;;;;;;;20.27;55.75;100660.69;4852903;29;7378;-73
2023/07/06 05:30:55;;;;;;;;;;;;;;;20.36;55.55;100660.78;4845533;29;7103;-72
2023/07/06 05:33:20;;;;;;;;;;;;;;;20.47;55.48;100660.03;4844607;29;7354;-74
2023/07/06 05:35:47;;;;;;;;;;;;;;;20.63;55.40;100659.34;4843023;29;6768;-72
2023/07/06 05:38:13;;;;;;;;;;;;;;;20.77;55.04;100663.84;4832334;29;6970;-72
2023/07/06 05:40:41;;;;;;;;;;;;;;;20.89;54.64;100647.47;4839873;29;7208;-73
2023/07/06 05:43:09;;;;;;;;;;;;;;;20.96;54.36;100657.09;4847677;29;7202;-72
2023/07/06 05:45:34;;;;;;;;;;;;;;;21.04;53.57;100657.16;4831802;29;6959;-72
2023/07/06 05:48:01;;;;;;;;;;;;;;;21.09;53.59;100661.56;4846202;29;6804;-73
2023/07/06 05:50:27;;;;;;;;;;;;;;;21.15;53.33;100658.16;4845832;29;6867;-72
2023/07/06 05:52:53;;;;;;;;;;;;;;;21.24;53.62;100662.56;4838940;29;7382;-73
2023/07/06 05:55:18;;;;;;;;;;;;;;;21.39;53.30;100661.81;4848021;29;7686;-73
2023/07/06 05:57:45;;;;;;;;;;;;;;;21.46;52.93;100668.81;4839085;29;6784;-73
2023/07/06 06:00:11;;;;;;;;;;;;;;;21.47;52.13;100664.44;4843127;29;6864;-72
2023/07/06 06:02:39;;;;;;;;;;;;;;;21.40;51.51;100678.34;4859789;29;7337;-73
2023/07/06 06:05:06;;;;;;;;;;;;;;;21.26;50.93;100675.63;4825613;29;7195;-73
2023/07/06 06:07:33;;;;;;;;;;;;;;;21.07;50.60;100671.09;4842699;29;7389;-73
2023/07/06 06:10:03;;;;;;;;;;;;;;;20.90;51.08;100681.38;4844785;29;6825;-72
2023/07/06 06:12:31;;;;;;;;;;;;;;;20.77;50.87;100682.09;4844374;29;6797;-72
2023/07/06 06:14:58;;;;;;;;;;;;;;;20.61;50.97;100687.13;4846356;29;6852;-73
2023/07/06 06:17:27;;;;;;;;;;;;;;;20.47;50.95;100691.28;4844546;29;6808;-73
2023/07/06 06:19:52;;;;;;;;;;;;;;;20.35;51.19;100700.69;4864183;29;6801;-73
2023/07/06 06:22:19;;;;;;;;;;;;;;;20.24;51.27;100695.38;4840536;29;6856;-73
2023/07/06 06:24:45;;;;;;;;;;;;;;;20.18;51.66;100697.00;4844697;29;7952;-73
2023/07/06 06:27:14;;;;;;;;;;;;;;;20.14;52.03;100705.63;4860989;29;7246;-73
2023/07/06 06:29:42;;;;;;;;;;;;;;;20.12;52.40;100698.69;4856973;29;6793;-75
2023/07/06 06:32:10;;;;;;;;;;;;;;;20.12;52.46;100714.28;4840845;29;6922;-74
2023/07/06 06:34:39;;;;;;;;;;;;;;;20.11;52.57;100716.84;4843432;29;7231;-76
2023/07/06 06:37:06;;;;;;;;;;;;;;;20.09;52.52;100711.66;4835792;29;7061;-72
2023/07/06 06:39:33;;;;;;;;;;;;;;;20.08;53.27;100716.81;4846732;29;6781;-72
2023/07/06 06:42:00;;;;;;;;;;;;;;;20.06;53.25;100718.53;4844727;29;6788;-72
2023/07/06 06:44:28;;;;;;;;;;;;;;;20.06;53.19;100716.78;4828852;29;7055;-75
2023/07/06 06:47:01;;;;;;;;;;;;;;;20.09;53.55;100721.16;4841514;29;6873;-75
2023/07/06 06:49:26;;;;;;;;;;;;;;;20.12;53.67;100724.69;4844050;29;7223;-75
2023/07/06 06:51:52;;;;;;;;;;;;;;;20.19;53.78;100719.59;4841495;29;9536;-72
2023/07/06 06:54:19;;;;;;;;;;;;;;;20.24;54.06;100731.81;4828096;29;6982;-72
2023/07/06 06:56:44;;;;;;;;;;;;;;;20.31;53.76;100734.47;4843137;29;6777;-73
2023/07/06 06:59:11;;;;;;;;;;;;;;;20.39;54.00;100740.66;4829826;29;6932;-72
2023/07/06 07:01:38;;;;;;;;;;;;;;;20.54;54.44;100742.56;4842495;29;6804;-72
2023/07/06 07:04:04;;;;;;;;;;;;;;;20.79;55.04;100745.47;4843424;29;7049;-72
2023/07/06 07:06:30;;;;;;;;;;;;;;;21.11;55.05;100744.97;4834071;29;7197;-72
2023/07/06 07:08:57;;;;;;;;;;;;;;;21.45;54.84;100740.06;4843336;29;6812;-72
2023/07/06 07:11:23;;;;;;;;;;;;;;;21.87;54.44;100740.38;4864086;29;7764;-73
2023/07/06 07:13:52;;;;;;;;;;;;;;;22.27;54.12;100737.16;4857155;29;6947;-73
2023/07/06 07:16:19;;;;;;;;;;;;;;;22.70;54.16;100741.72;4860467;29;6781;-73
2023/07/06 07:18:45;;;;;;;;;;;;;;;23.13;53.54;100740.03;4843257;29;7274;-72
2023/07/06 07:21:12;;;;;;;;;;;;;;;23.60;52.67;100725.28;4840806;29;7193;-72
2023/07/06 07:23:47;;;;;;;;;;;;;;;24.08;52.04;100732.22;4827645;29;6995;-73
2023/07/06 07:26:17;;;;;;;;;;;;;;;24.44;49.94;100726.84;4843233;29;6979;-72
2023/07/06 07:28:45;;;;;;;;;;;;;;;24.73;49.66;100731.06;4838785;29;7031;-72
2023/07/06 07:31:11;;;;;;;;;;;;;;;25.04;49.35;100731.78;4856102;29;6800;-73
2023/07/06 07:33:38;;;;;;;;;;;;;;;25.37;48.51;100729.78;4858701;29;6792;-73
2023/07/06 07:36:05;;;;;;;;;;;;;;;25.73;48.21;100723.38;4843318;29;7791;-73
2023/07/06 07:38:31;;;;;;;;;;;;;;;26.04;47.10;100725.66;4844826;29;6797;-72
2023/07/06 07:41:02;;;;;;;;;;;;;;;26.28;46.12;100723.69;4859804;29;8082;-74
2023/07/06 07:43:32;;;;;;;;;;;;;;;26.50;45.81;100729.50;4858743;29;6797;-72
2023/07/06 07:46:09;;;;;;;;;;;;;;;26.76;45.32;100723.03;4841237;29;6967;-72
2023/07/06 07:48:38;;;;;;;;;;;;;;;26.98;44.31;100726.25;4844054;29;6827;-73
2023/07/06 07:51:07;;;;;;;;;;;;;;;27.21;43.68;100721.53;4862541;29;6801;-72
2023/07/06 07:53:38;;;;;;;;;;;;;;;27.38;42.78;100719.50;4838539;29;6816;-73
2023/07/06 07:56:05;;;;;;;;;;;;;;;27.56;42.29;100720.97;4856408;29;6829;-73
2023/07/06 07:58:35;;;;;;;;;;;;;;;27.72;41.73;100718.91;4858206;29;7791;-71
2023/07/06 08:01:07;;;;;;;;;;;;;;;27.84;40.82;100725.72;4834629;29;6852;-71
2023/07/06 08:03:35;;;;;;;;;;;;;;;27.93;40.61;100723.81;4843219;29;6804;-71
2023/07/06 08:06:08;;;;;;;;;;;;;;;28.05;40.06;100726.19;4854761;29;6816;-72
2023/07/06 08:08:37;;;;;;;;;;;;;;;28.24;40.20;100726.69;4842372;29;7147;-72
2023/07/06 08:11:11;;;;;;;;;;;;;;;28.50;40.23;100727.94;4849999;29;7266;-71
2023/07/06 08:13:37;;;;;;;;;;;;;;;28.80;39.20;100735.19;4855511;29;6889;-70
2023/07/06 08:16:04;;;;;;;;;;;;;;;29.00;38.37;100737.38;4858793;29;7290;-70
2023/07/06 08:18:31;;;;;;;;;;;;;;;29.18;38.39;100729.94;4858316;29;6797;-70
2023/07/06 08:20:58;;;;;;;;;;;;;;;29.38;37.32;100721.53;4857901;29;6789;-70
2023/07/06 08:23:28;;;;;;;;;;;;;;;29.63;37.06;100727.06;4855097;29;6796;-72
2023/07/06 08:25:54;;;;;;;;;;;;;;;29.91;36.66;100722.78;4844172;29;7020;-70
2023/07/06 08:28:28;;;;;;;;;;;;;;;30.20;36.18;100726.41;4842403;29;6781;-70
2023/07/06 08:30:54;;;;;;;;;;;;;;;30.48;36.25;100728.25;4844609;29;7282;-70
2023/07/06 08:33:22;;;;;;;;;;;;;;;30.76;35.54;100724.78;4857676;29;6780;-72
2023/07/06 08:35:50;;;;;;;;;;;;;;;30.99;34.84;100721.41;4840989;29;6805;-71
2023/07/06 08:38:16;;;;;;;;;;;;;;;31.11;34.08;100725.44;4844070;29;7313;-71
2023/07/06 08:40:46;;;;;;;;;;;;;;;31.08;33.79;100722.88;4843475;29;6974;-72
2023/07/06 08:43:22;;;;;;;;;;;;;;;31.18;33.85;100721.63;4840694;29;7012;-72
2023/07/06 08:46:03;;;;;;;;;;;;;;;31.38;33.10;100722.78;4839586;29;7007;-71
2023/07/06 08:48:34;;;;;;;;;;;;;;;31.70;33.03;100725.22;4841333;29;6833;-71
2023/07/06 08:51:13;;;;;;;;;;;;;;;32.02;32.56;100725.00;4855374;29;7651;-70
2023/07/06 08:54:02;;;;;;;;;;;;;;;32.37;32.39;100728.16;4839701;29;6821;-71
2023/07/06 08:56:36;;;;;;;;;;;;;;;32.69;31.33;100720.72;4841817;29;7202;-71
2023/07/06 08:59:13;;;;;;;;;;;;;;;32.93;30.92;100721.53;4845522;29;6824;-71
2023/07/06 09:01:41;;;;;;;;;;;;;;;33.14;30.25;100726.03;4858081;29;6889;-71
2023/07/06 09:04:19;;;;;;;;;;;;;;;33.27;30.14;100731.69;4847992;29;7154;-70
2023/07/06 09:06:54;;;;;;;;;;;;;;;33.35;29.77;100727.78;4844550;29;7102;-73
2023/07/06 09:09:21;;;;;;;;;;;;;;;33.35;29.26;100725.13;4866810;29;7209;-70
2023/07/06 09:11:49;;;;;;;;;;;;;;;33.30;29.17;100734.22;4845095;29;7315;-71
2023/07/06 09:14:16;;;;;;;;;;;;;;;33.15;28.91;100738.38;4828504;29;7242;-71
2023/07/06 09:16:55;;;;;;;;;;;;;;;32.99;28.61;100736.34;4825500;29;7268;-72
2023/07/06 09:19:23;;;;;;;;;;;;;;;32.95;28.49;100734.78;4865181;29;7088;-72
2023/07/06 09:21:56;;;;;;;;;;;;;;;33.14;28.40;100739.31;4856818;29;6812;-71
2023/07/06 09:24:27;;;;;;;;;;;;;;;33.35;28.21;100743.72;4851503;29;7054;-70
2023/07/06 09:26:58;;;;;;;;;;;;;;;33.60;27.88;100726.72;4847604;29;6860;-70
2023/07/06 09:29:34;;;;;;;;;;;;;;;33.88;27.58;100736.13;4844079;29;6796;-70
2023/07/06 09:32:21;;;;;;;;;;;;;;;34.16;27.69;100734.06;4840867;29;6843;-72
2023/07/06 09:35:06;;;;;;;;;;;;;;;34.35;27.32;100729.63;4842902;29;6789;-70
2023/07/06 09:37:31;;;;;;;;;;;;;;;34.48;27.13;100735.22;4859435;29;6826;-71
2023/07/06 09:40:03;;;;;;;;;;;;;;;34.56;26.45;100741.97;4846720;29;7045;-72
2023/07/06 09:42:29;;;;;;;;;;;;;;;34.71;26.78;100735.06;4830676;29;7005;-70
2023/07/06 09:44:56;;;;;;;;;;;;;;;34.83;26.16;100726.50;4828596;29;6993;-70
2023/07/06 09:47:23;;;;;;;;;;;;;;;34.97;26.85;100731.13;4844389;29;6924;-72
2023/07/06 09:49:59;;;;;;;;;;;;;;;35.14;26.76;100732.97;4847120;29;6801;-72
2023/07/06 09:52:28;;;;;;;;;;;;;;;35.29;25.59;100727.78;4847410;29;6805;-71
2023/07/06 09:55:16;;;;;;;;;;;;;;;35.20;26.20;100736.25;4850558;29;7108;-72
2023/07/06 09:57:44;;;;;;;;;;;;;;;35.25;25.85;100742.22;4825123;29;7163;-71
2023/07/06 10:00:22;;;;;;;;;;;;;;;35.46;26.13;100734.94;4843421;29;6797;-71
2023/07/06 10:03:03;;;;;;;;;;;;;;;35.73;25.63;100729.13;4848577;29;6812;-71
2023/07/06 10:05:59;;;;;;;;;;;;;;;36.03;25.69;100739.09;4843498;29;6851;-70
2023/07/06 10:08:44;;;;;;;;;;;;;;;36.08;25.42;100741.56;4859591;29;7211;-70
2023/07/06 10:11:24;;;;;;;;;;;;;;;36.19;24.45;100733.81;4849652;29;6813;-72
2023/07/06 10:14:09;;;;;;;;;;;;;;;36.36;24.36;100743.53;4842962;29;6809;-70
2023/07/06 10:17:12;;;;;;;;;;;;;;;36.56;23.88;100741.59;4843852;29;6978;-71
2023/07/06 10:19:57;;;;;;;;;;;;;;;36.74;23.38;100742.34;4846215;29;6899;-71
2023/07/06 10:23:04;;;;;;;;;;;;;;;36.89;23.53;100737.91;4846374;29;7281;-72
2023/07/06 10:26:12;;;;;;;;;;;;;;;36.94;23.34;100737.66;4843641;29;7148;-72
2023/07/06 10:28:56;;;;;;;;;;;;;;;37.19;23.76;100741.59;4842763;29;6946;-72
2023/07/06 10:31:34;;;;;;;;;;;;;;;37.38;23.17;100744.03;4862306;29;7003;-72
2023/07/06 10:34:10;;;;;;;;;;;;;;;37.48;23.25;100736.31;4844058;29;6946;-72
2023/07/06 10:36:36;;;;;;;;;;;;;;;37.34;23.24;100739.81;4862722;29;7201;-72
2023/07/06 10:39:44;;;;;;;;;;;;;;;37.24;22.91;100739.53;4840599;29;7229;-72
2023/07/06 10:42:26;;;;;;;;;;;;;;;37.16;23.00;100747.97;4839654;29;6813;-72
2023/07/06 10:44:58;;;;;;;;;;;;;;;37.24;22.87;100743.03;4841906;29;7418;-72
2023/07/06 10:47:41;;;;;;;;;;;;;;;37.38;22.52;100744.03;4840664;29;6869;-72
2023/07/06 10:50:23;;;;;;;;;;;;;;;37.33;22.39;100738.97;4841232;29;7791;-72
2023/07/06 10:53:09;;;;;;;;;;;;;;;37.11;22.84;100742.06;4843247;29;6939;-72
2023/07/06 10:55:36;;;;;;;;;;;;;;;36.87;22.95;100737.16;4860084;29;6900;-72
2023/07/06 10:58:21;;;;;;;;;;;;;;;36.96;22.92;100744.63;4843642;29;6816;-72
2023/07/06 11:00:48;;;;;;;;;;;;;;;36.87;22.20;100736.31;4859820;29;7002;-72
2023/07/06 11:03:27;;;;;;;;;;;;;;;36.26;22.33;100737.84;4856233;29;6789;-72
2023/07/06 11:06:25;;;;;;;;;;;;;;;36.06;23.15;100748.72;4857774;29;7228;-72
2023/07/06 11:09:07;;;;;;;;;;;;;;;36.21;22.83;100737.25;4841077;29;7195;-72
2023/07/06 11:11:49;;;;;;;;;;;;;;;36.36;22.77;100740.88;4828308;29;6796;-71
2023/07/06 11:14:33;;;;;;;;;;;;;;;36.82;22.91;100741.91;4831812;29;6808;-71
2023/07/06 11:17:36;;;;;;;;;;;;;;;37.29;22.46;100736.56;4832858;29;6956;-71
2023/07/06 11:20:16;;;;;;;;;;;;;;;37.73;22.00;100741.03;4826618;29;6877;-71
2023/07/06 11:22:46;;;;;;;;;;;;;;;38.25;21.48;100741.44;4829195;29;6805;-71
2023/07/06 11:25:14;;;;;;;;;;;;;;;38.39;21.50;100745.91;4860225;29;7353;-71
2023/07/06 11:27:45;;;;;;;;;;;;;;;38.26;21.13;100743.16;4829623;29;6805;-71
2023/07/06 11:30:22;;;;;;;;;;;;;;;38.14;21.09;100730.53;4829208;29;6801;-71
2023/07/06 11:33:09;;;;;;;;;;;;;;;38.06;21.47;100747.97;4843498;29;6809;-71
2023/07/06 11:35:47;;;;;;;;;;;;;;;38.25;21.12;100735.22;4843955;29;6789;-71
2023/07/06 11:38:30;;;;;;;;;;;;;;;37.85;20.58;100751.94;4824539;29;6999;-71
2023/07/06 11:41:41;;;;;;;;;;;;;;;36.59;20.74;100752.09;4841223;29;7048;-71
2023/07/06 11:44:31;;;;;;;;;;;;;;;35.85;21.85;100755.13;4846232;29;6801;-70
2023/07/06 11:47:28;;;;;;;;;;;;;;;36.11;21.92;100749.38;4843995;29;6860;-71
2023/07/06 11:50:01;;;;;;;;;;;;;;;36.34;21.71;100745.44;4844737;29;6861;-71
2023/07/06 11:52:40;;;;;;;;;;;;;;;36.27;21.20;100752.06;4844266;29;6878;-71
2023/07/06 11:55:28;;;;;;;;;;;;;;;35.95;21.92;100754.66;4828735;29;7162;-71
2023/07/06 11:58:28;;;;;;;;;;;;;;;35.92;21.61;100754.78;4838189;29;6804;-70
2023/07/06 12:01:01;;;;;;;;;;;;;;;36.03;22.15;100757.75;4837594;29;6875;-71
2023/07/06 12:03:28;;;;;;;;;;;;;;;36.42;22.16;100753.88;4838463;29;7232;-71
2023/07/06 12:06:00;;;;;;;;;;;;;;;36.95;21.93;100750.94;4843582;29;7004;-71
2023/07/06 12:08:36;;;;;;;;;;;;;;;37.43;21.15;100743.75;4862394;29;7086;-71
2023/07/06 12:11:14;;;;;;;;;;;;;;;37.46;20.95;100744.41;4827971;29;7178;-71
2023/07/06 12:13:43;;;;;;;;;;;;;;;36.73;21.25;100753.13;4859213;29;6816;-71
2023/07/06 12:16:09;;;;;;;;;;;;;;;35.68;21.76;100753.34;4838755;29;6964;-71
2023/07/06 12:18:36;;;;;;;;;;;;;;;34.64;22.23;100757.59;4841518;29;7247;-70
2023/07/06 12:21:05;;;;;;;;;;;;;;;33.70;22.55;100758.22;4856431;29;6998;-72
2023/07/06 12:23:32;;;;;;;;;;;;;;;33.57;23.61;100758.75;4839150;29;6963;-71
2023/07/06 12:25:59;;;;;;;;;;;;;;;33.82;23.43;100762.13;4842542;29;7210;-71
2023/07/06 12:28:29;;;;;;;;;;;;;;;33.70;23.86;100756.44;4836529;29;7221;-71
2023/07/06 12:30:58;;;;;;;;;;;;;;;33.28;23.71;100763.47;4859118;29;6933;-71
2023/07/06 12:33:25;;;;;;;;;;;;;;;32.87;24.09;100769.53;4869200;29;7075;-71
2023/07/06 12:35:53;;;;;;;;;;;;;;;32.97;24.38;100767.41;4872311;29;6844;-72
2023/07/06 12:38:20;;;;;;;;;;;;;;;33.32;24.68;100757.13;4864509;29;6801;-71
2023/07/06 12:40:47;;;;;;;;;;;;;;;33.90;24.01;100758.22;4863374;29;6952;-71
2023/07/06 12:43:30;;;;;;;;;;;;;;;33.83;23.60;100751.44;4860543;29;7015;-72
2023/07/06 12:45:57;;;;;;;;;;;;;;;33.24;23.25;100757.44;4855888;29;6982;-72
2023/07/06 12:48:25;;;;;;;;;;;;;;;32.61;23.90;100765.25;4875040;29;6943;-72
2023/07/06 12:50:54;;;;;;;;;;;;;;;32.23;24.44;100753.38;4857765;29;6990;-72
2023/07/06 12:53:33;;;;;;;;;;;;;;;32.49;24.62;100748.91;4859323;29;6878;-72
2023/07/06 12:56:09;;;;;;;;;;;;;;;33.11;23.98;100745.63;4864142;29;6821;-72
2023/07/06 12:58:37;;;;;;;;;;;;;;;33.44;23.59;100738.94;4851186;29;6986;-72
2023/07/06 13:01:21;;;;;;;;;;;;;;;33.60;23.65;100733.84;4860790;29;6876;-72
2023/07/06 13:03:56;;;;;;;;;;;;;;;33.96;23.25;100737.59;4860873;29;6820;-72
2023/07/06 13:06:26;;;;;;;;;;;;;;;34.41;22.82;100733.78;4842754;29;6833;-72
2023/07/06 13:09:02;;;;;;;;;;;;;;;34.83;21.91;100730.94;4846898;29;6877;-72
2023/07/06 13:11:28;;;;;;;;;;;;;;;35.13;22.02;100727.72;4858181;29;7166;-72
2023/07/06 13:14:03;;;;;;;;;;;;;;;35.34;21.66;100728.44;4862613;29;6768;-72
2023/07/06 13:16:41;;;;;;;;;;;;;;;35.51;21.43;100722.22;4859955;29;6817;-72